Hauptseite
METAR-TAF:

METAR-TAF

Flughäfen :

Flughafen Nouakchott-Oumtounsy

Nouakchott, Mauretanien

Breite: 18-18-36N, Länge: 015-58-11W, Höhe: 3 m

Beobachtung

Neuester Wetterbericht von vor 33 Minuten, um 18:30 UTC
Wind 5 kt aus Ost
Temperatur 33°C
Luftfeuchtigkeit 36%
Luftdruck 1010 hPa
Sichtweite: 2500 m
verbreitet Staub

METAR: GQNO 231830Z 09005KT 2500 DU NSC 33/16 Q1010 BECMG 3200

Zeit: 19:03 (19:03 UTC)

Prognose

Neuester Wetterbericht von vor 2 Stunden und 3 Minuten, um 17:00 UTC
Gültige Prognose vom 23 um 18 UTC bis 24 um 24 UTC
Wind 12 kt aus Ost
Sichtweite: 2000 m
Staubtreiben
Ab 23 um 1900 UTC
Wind 12 kt aus Nord
Sichtweite: 4500 m
Staubtreiben
Zeitweise
vom 24 um 09 UTC bis 24 um 15 UTC
Wind 12 kt aus Ost/Nordost

TAF: GQNO 231700Z 2318/2424 09012KT 2000 BLDU NSC FM231900 01012KT 4500 BLDU NSC TEMPO 2409/2415 06012KT

Wetterbeobachtungen und Prognosen von mehr als 4000 Flughäfen (METAR und TAF Bericht).

Die verfügbaren Stationen werden durch gelbe und rote Markierungen auf der Karte dargestellt.

Führen Sie die Maus auf sie, um den Namen der Station zu sehen.

Darauf klicken, um die Beobachtung von Wetterbeobachtungen und Prognosen zu sehen.

Um die Karte zu ändern : klicken Sie auf den grünen Tasten mit einem schwarzen Kreuz Zum Vergrößern, auf den grünen Button mit einem Gedankenstrich zu verkleinern, oder auf die grünen Pfeile für benachbarte Karten.


METAR-TAF: